| time (UTC) | temp C | wind direction | speed KPH | gust KPH | rain 1hr cm | rain 24hr cm | rain mn cm | humidity % | barometer mb |
| 20260505064558 | 11 | 0 | 0.0 | 0.0 | 0.00 | 0.00 | 0.00 | 93 | 1016.8 |
| 20260505063059 | 11 | 0 | 0.0 | 0.0 | 0.00 | 0.00 | 0.00 | 92 | 1016.8 |
| 20260505061558 | 11 | 0 | 0.0 | 0.0 | 0.00 | 0.00 | 0.00 | 90 | 1016.6 |
| 20260505060059 | 12 | 0 | 0.0 | 0.0 | 0.00 | 0.00 | 0.00 | 89 | 1016.7 |
| 20260505054559 | 12 | 0 | 0.0 | 0.0 | 0.00 | 0.00 | 0.00 | 89 | 1016.6 |
| 20260505053100 | 12 | 0 | 0.0 | 0.0 | 0.00 | 0.00 | 0.00 | 86 | 1016.6 |
| 20260505051608 | 13 | 0 | 0.0 | 0.0 | 0.00 | 0.00 | 0.00 | 85 | 1016.4 |
| 20260505050106 | 13 | 0 | 0.0 | 0.0 | 0.00 | 0.00 | 0.00 | 85 | 1016.3 |
| 20260505041603 | 14 | 0 | 0.0 | 0.0 | 0.00 | 0.00 | 0.00 | 85 | 1015.9 |
| 20260505040100 | 15 | 0 | 0.0 | 3.2 | 0.00 | 0.00 | 0.00 | 83 | 1015.7 |
| 20260505034557 | 15 | 261 | 0.0 | 4.8 | 0.00 | 0.00 | 0.00 | 84 | 1015.4 |
| 20260505033100 | 15 | 0 | 0.0 | 0.0 | 0.00 | 0.00 | 0.00 | 83 | 1015.2 |
| 20260505031601 | 16 | 248 | 0.0 | 3.2 | 0.00 | 0.00 | 0.00 | 82 | 1015.0 |
| 20260505030058 | 16 | 0 | 0.0 | 0.0 | 0.00 | 0.00 | 0.00 | 83 | 1014.9 |
| 20260505024608 | 17 | 0 | 0.0 | 0.0 | 0.00 | 0.00 | 0.00 | 84 | 1014.6 |
| 20260505023105 | 17 | 0 | 0.0 | 0.0 | 0.00 | 0.00 | 0.00 | 85 | 1014.6 |
| 20260505021558 | 18 | 0 | 0.0 | 0.0 | 0.00 | 0.00 | 0.00 | 84 | 1014.6 |
| 20260505020059 | 18 | 0 | 0.0 | 0.0 | 0.00 | 0.00 | 0.00 | 83 | 1014.4 |
| 20260505014600 | 18 | 0 | 0.0 | 0.0 | 0.00 | 0.00 | 0.00 | 84 | 1014.4 |
| 20260505013127 | 18 | 0 | 0.0 | 0.0 | 0.00 | 0.00 | 0.00 | 84 | 1014.6 |
| 20260505011628 | 18 | 0 | 0.0 | 0.0 | 0.00 | 0.00 | 0.00 | 83 | 1014.6 |
| 20260505010115 | 19 | 0 | 0.0 | 3.2 | 0.00 | 0.00 | 0.00 | 80 | 1014.6 |
| 20260505004558 | 19 | 0 | 0.0 | 1.6 | 0.00 | 0.00 | 0.00 | 81 | 1014.6 |
| 20260505003104 | 19 | 0 | 0.0 | 8.0 | 0.00 | 0.00 | 0.00 | 80 | 1014.9 |
| 20260505001559 | 19 | 128 | 0.0 | 3.2 | 0.00 | 0.00 | 0.00 | 79 | 1014.8 |
| 20260505000109 | 20 | 160 | 0.0 | 4.8 | 0.00 | 0.00 | 0.00 | 78 | 1014.9 |
| 20260504234600 | 20 | 0 | 1.6 | 11.3 | 0.00 | 0.00 | 0.00 | 76 | 1015.1 |
| 20260504233107 | 20 | 138 | 1.6 | 14.5 | 0.00 | 0.00 | 0.00 | 77 | 1015.2 |
| 20260504231601 | 20 | 0 | 0.0 | 11.3 | 0.00 | 0.00 | 0.00 | 78 | 1015.2 |
| 20260504230105 | 20 | 0 | 3.2 | 9.7 | 0.00 | 0.00 | 0.00 | 75 | 1015.4 |
| 20260504224606 | 20 | 96 | 1.6 | 11.3 | 0.00 | 0.00 | 0.00 | 77 | 1015.5 |
| 20260504223104 | 20 | 95 | 3.2 | 8.0 | 0.00 | 0.00 | 0.00 | 75 | 1015.5 |
| 20260504221603 | 20 | 121 | 1.6 | 17.7 | 0.00 | 0.00 | 0.00 | 73 | 1015.7 |
| 20260504220100 | 20 | 0 | 1.6 | 6.4 | 0.00 | 0.00 | 0.00 | 75 | 1015.9 |
| 20260504214614 | 20 | 71 | 3.2 | 8.0 | 0.00 | 0.00 | 0.00 | 74 | 1015.9 |
| 20260504213125 | 20 | 0 | 1.6 | 8.0 | 0.00 | 0.00 | 0.00 | 76 | 1016.0 |
| 20260504211559 | 19 | 83 | 1.6 | 9.7 | 0.00 | 0.00 | 0.00 | 78 | 1016.3 |
| 20260504210105 | 19 | 139 | 4.8 | 16.1 | 0.00 | 0.00 | 0.00 | 77 | 1016.5 |
| 20260504204607 | 19 | 101 | 3.2 | 9.7 | 0.00 | 0.00 | 0.00 | 78 | 1016.5 |
| 20260504203107 | 18 | 167 | 1.6 | 8.0 | 0.00 | 0.00 | 0.00 | 79 | 1016.8 |
| 20260504201630 | 18 | 65 | 1.6 | 9.7 | 0.00 | 0.00 | 0.00 | 79 | 1016.9 |
| 20260504200114 | 18 | 67 | 1.6 | 9.7 | 0.00 | 0.00 | 0.00 | 81 | 1017.0 |
| 20260504194611 | 17 | 67 | 3.2 | 8.0 | 0.00 | 0.00 | 0.00 | 80 | 1017.2 |
| 20260504193118 | 17 | 77 | 1.6 | 6.4 | 0.00 | 0.00 | 0.00 | 83 | 1017.2 |
| 20260504191609 | 16 | 63 | 3.2 | 8.0 | 0.00 | 0.00 | 0.00 | 82 | 1017.3 |
| 20260504190116 | 16 | 80 | 1.6 | 12.9 | 0.00 | 0.00 | 0.00 | 84 | 1017.4 |
| 20260504184626 | 16 | 77 | 1.6 | 9.7 | 0.00 | 0.00 | 0.00 | 85 | 1017.4 |
| 20260504183100 | 15 | 0 | 1.6 | 6.4 | 0.00 | 0.00 | 0.00 | 85 | 1017.4 |
| 20260504181603 | 15 | 51 | 0.0 | 6.4 | 0.00 | 0.00 | 0.00 | 86 | 1017.4 |
| 20260504180058 | 13 | 0 | 0.0 | 6.4 | 0.00 | 0.00 | 0.00 | 90 | 1017.5 |
| 20260504174600 | 13 | 0 | 1.6 | 4.8 | 0.00 | 0.00 | 0.00 | 90 | 1017.5 |
| 20260504173058 | 12 | 0 | 0.0 | 4.8 | 0.00 | 0.00 | 0.00 | 92 | 1017.5 |
| 20260504171610 | 12 | 0 | 0.0 | 3.2 | 0.00 | 0.00 | 0.00 | 93 | 1017.6 |
| 20260504160105 | 11 | 0 | 0.0 | 0.0 | 0.00 | 0.00 | 0.00 | 94 | 1017.4 |
| 20260504140109 | 11 | 0 | 0.0 | 0.0 | 0.00 | 0.00 | 0.00 | 96 | 1016.3 |
| 20260504120120 | 11 | 0 | 0.0 | 0.0 | 0.00 | 0.00 | 0.00 | 95 | 1014.9 |
| 20260504110107 | 11 | 0 | 0.0 | 0.0 | 0.00 | 0.00 | 0.00 | 94 | 1014.4 |
| 20260504100117 | 12 | 0 | 0.0 | 1.6 | 0.00 | 0.00 | 0.00 | 90 | 1013.7 |
| 20260504090107 | 15 | 0 | 0.0 | 0.0 | 0.00 | 0.00 | 0.00 | 81 | 1012.8 |
| 20260504081558 | 17 | 0 | 0.0 | 0.0 | 0.00 | 0.00 | 0.00 | 70 | 1012.9 |
| 20260504080105 | 18 | 0 | 0.0 | 0.0 | 0.00 | 0.00 | 0.00 | 68 | 1012.8 |
| 20260504070134 | 21 | 240 | 1.6 | 4.8 | 0.00 | 0.00 | 0.00 | 55 | 1012.7 |